Time;durP1;ratioP1;P1;durP2;ratioP2;P2;SDS_P1;SDS_P2;PMS_P1;PMS_P2;Temp;Humidity;BMP_temperature;BMP_pressure;BME280_temperature;BME280_humidity;BME280_pressure;Samples;Min_cycle;Max_cycle;Signal;HPM_P1;HPM_P2
2022/03/30 00:00:30;;;;;;;31.37;15.00;;;;;;;-145.18;100.00;46593.97;4970467;28;20591;-63
2022/03/30 00:02:56;;;;;;;43.63;16.50;;;;;;;-145.18;100.00;46588.13;4971697;28;20046;-63
2022/03/30 00:05:21;;;;;;;47.60;16.37;;;;;;;-145.18;100.00;46590.06;4974006;28;20511;-63
2022/03/30 00:07:51;;;;;;;38.37;17.10;;;;;;;-145.18;100.00;46576.41;4972791;28;20107;-63
2022/03/30 00:10:16;;;;;;;40.47;16.53;;;;;;;-145.18;100.00;46584.22;4973406;28;20043;-63
2022/03/30 00:12:42;;;;;;;42.73;17.33;;;;;;;-145.18;100.00;46588.13;4973004;28;20810;-63
2022/03/30 00:15:08;;;;;;;40.93;16.73;;;;;;;-145.18;100.00;46582.25;4973278;28;20039;-63
2022/03/30 00:17:33;;;;;;;35.07;16.03;;;;;;;-145.18;100.00;46580.31;4973429;28;20039;-63
2022/03/30 00:19:59;;;;;;;35.93;16.23;;;;;;;-145.18;100.00;46580.31;4973536;28;20060;-63
2022/03/30 00:22:26;;;;;;;39.20;16.43;;;;;;;-145.18;100.00;46586.16;4973350;28;20046;-63
2022/03/30 00:24:52;;;;;;;40.93;17.03;;;;;;;-145.18;100.00;46582.25;4973624;28;20269;-63
2022/03/30 00:27:17;;;;;;;31.30;16.53;;;;;;;-145.18;100.00;46578.34;4972271;28;20299;-63
2022/03/30 00:29:44;;;;;;;43.20;15.70;;;;;;;-145.18;100.00;46582.25;4973161;28;20042;-63
2022/03/30 00:32:10;;;;;;;41.33;16.67;;;;;;;-145.18;100.00;46590.06;4972906;28;20039;-63
2022/03/30 00:34:36;;;;;;;36.50;17.53;;;;;;;-145.18;100.00;46580.31;4973789;28;20292;-63
2022/03/30 00:37:01;;;;;;;42.67;18.43;;;;;;;-145.18;100.00;46582.25;4972631;28;20049;-63
2022/03/30 00:39:27;;;;;;;43.07;17.23;;;;;;;-145.18;100.00;46584.22;4973569;28;20635;-63
2022/03/30 00:41:52;;;;;;;45.07;18.13;;;;;;;-145.18;100.00;46584.22;4972817;28;20106;-63
2022/03/30 00:44:18;;;;;;;42.97;17.30;;;;;;;-145.18;100.00;46582.25;4973087;28;20035;-63
2022/03/30 00:46:44;;;;;;;41.03;17.40;;;;;;;-145.18;100.00;46582.25;4972811;28;20038;-63
2022/03/30 00:49:11;;;;;;;42.50;16.93;;;;;;;-145.18;100.00;46574.44;4973136;28;20031;-63
2022/03/30 00:51:36;;;;;;;41.33;16.70;;;;;;;-145.18;100.00;46582.25;4972862;28;20761;-63
2022/03/30 00:54:02;;;;;;;40.40;16.90;;;;;;;-145.18;100.00;46580.31;4973148;28;20265;-63
2022/03/30 00:56:31;;;;;;;43.77;17.43;;;;;;;-145.18;100.00;46574.44;4972326;28;20038;-63
2022/03/30 00:58:57;;;;;;;39.20;18.20;;;;;;;-145.18;100.00;46580.31;4972642;28;20753;-63
2022/03/30 01:01:25;;;;;;;42.47;17.10;;;;;;;-145.18;100.00;46582.25;4972744;28;20275;-63
2022/03/30 01:03:51;;;;;;;47.53;17.47;;;;;;;-145.18;100.00;46582.25;4972560;28;20050;-63
2022/03/30 01:06:16;;;;;;;43.97;18.40;;;;;;;-145.18;100.00;46584.22;4972095;28;20358;-63
2022/03/30 01:08:42;;;;;;;44.13;17.03;;;;;;;-145.18;100.00;46580.31;4973288;28;20045;-63
2022/03/30 01:11:10;;;;;;;37.97;17.50;;;;;;;-145.18;100.00;46580.31;4972450;28;20050;-63
2022/03/30 01:13:35;;;;;;;40.27;19.37;;;;;;;-145.18;100.00;46572.50;4972299;28;20110;-63
2022/03/30 01:16:02;;;;;;;41.57;16.40;;;;;;;-145.18;100.00;46572.50;4971762;28;20303;-63
2022/03/30 01:18:27;;;;;;;43.67;15.87;;;;;;;-145.18;100.00;46574.44;4972569;28;20063;-63
2022/03/30 01:20:53;;;;;;;42.13;16.93;;;;;;;-145.18;100.00;46570.53;4972257;28;20273;-63
2022/03/30 01:23:18;;;;;;;38.40;16.43;;;;;;;-145.18;100.00;46572.50;4972469;28;20089;-63
2022/03/30 01:25:43;;;;;;;36.00;15.57;;;;;;;-145.18;100.00;46578.34;4972718;28;20045;-63
2022/03/30 01:28:09;;;;;;;45.87;17.83;;;;;;;-145.18;100.00;46574.44;4971172;28;20054;-63
2022/03/30 01:33:20;;;;;;;48.67;18.10;;;;;;;-145.18;100.00;46568.59;4972483;28;20046;-63
2022/03/30 01:35:45;;;;;;;39.73;18.40;;;;;;;-145.18;100.00;46568.59;4972440;28;20321;-63
2022/03/30 01:38:11;;;;;;;39.80;18.80;;;;;;;-145.18;100.00;46564.69;4954561;28;20277;-63
2022/03/30 01:40:39;;;;;;;42.27;17.53;;;;;;;-145.18;100.00;46562.72;4971632;28;20022;-63
2022/03/30 01:43:05;;;;;;;52.70;18.60;;;;;;;-145.18;100.00;46564.69;4971471;28;20061;-63
2022/03/30 01:45:30;;;;;;;40.83;17.37;;;;;;;-145.18;100.00;46564.69;4972616;28;20726;-63
2022/03/30 01:47:58;;;;;;;49.30;19.67;;;;;;;-145.18;100.00;46562.72;4971586;28;20049;-63
2022/03/30 01:50:25;;;;;;;44.97;18.27;;;;;;;-145.18;100.00;46566.63;4972528;28;20098;-63
2022/03/30 01:52:51;;;;;;;48.10;19.97;;;;;;;-145.18;100.00;46560.78;4971142;28;20280;-63
2022/03/30 01:55:18;;;;;;;54.30;19.20;;;;;;;-145.18;100.00;46566.63;4971664;28;20257;-63
2022/03/30 01:57:44;;;;;;;44.60;17.90;;;;;;;-145.18;100.00;46556.88;4971609;28;20022;-62
2022/03/30 02:02:51;;;;;;;37.20;18.43;;;;;;;-145.18;100.00;46554.91;5259760;23;20660;-63
2022/03/30 02:05:18;;;;;;;47.60;19.77;;;;;;;-145.18;100.00;46556.88;5008757;28;20291;-63
2022/03/30 02:07:44;;;;;;;44.17;18.77;;;;;;;-145.18;100.00;46564.69;5010792;28;20465;-63
2022/03/30 02:10:10;;;;;;;44.23;18.17;;;;;;;-145.18;100.00;46560.78;5010586;28;20291;-63
2022/03/30 02:12:37;;;;;;;38.90;18.67;;;;;;;-145.18;100.00;46558.81;5010405;28;20263;-63
2022/03/30 02:15:03;;;;;;;50.70;19.97;;;;;;;-145.18;100.00;46560.78;5010958;28;20700;-63
2022/03/30 02:17:29;;;;;;;57.10;20.33;;;;;;;-145.18;100.00;46554.91;5010441;28;20259;-63
2022/03/30 02:19:55;;;;;;;55.73;19.97;;;;;;;-145.18;100.00;46552.97;5010718;28;20782;-63
2022/03/30 02:22:22;;;;;;;49.50;20.73;;;;;;;-145.18;100.00;46552.97;5010450;28;20042;-63
2022/03/30 02:24:48;;;;;;;53.40;20.33;;;;;;;-145.18;100.00;46562.72;5010111;28;20545;-63
2022/03/30 02:27:15;;;;;;;50.30;19.37;;;;;;;-145.18;100.00;46552.97;4992868;28;20302;-63
2022/03/30 02:29:40;;;;;;;54.57;21.30;;;;;;;-145.18;100.00;46560.78;5011184;28;20286;-63
2022/03/30 02:32:06;;;;;;;52.63;20.80;;;;;;;-145.18;100.00;46552.97;5010286;28;20279;-63
2022/03/30 02:34:31;;;;;;;47.33;19.70;;;;;;;-145.18;100.00;46558.81;5010964;28;20033;-63
2022/03/30 02:36:57;;;;;;;46.43;20.13;;;;;;;-145.18;100.00;46560.78;5010300;28;20723;-63
2022/03/30 02:39:22;;;;;;;42.00;18.73;;;;;;;-145.18;100.00;46556.88;5010850;28;20379;-63
2022/03/30 02:41:48;;;;;;;53.40;18.17;;;;;;;-145.18;100.00;46562.72;5010534;28;20129;-63
2022/03/30 02:44:13;;;;;;;50.50;19.60;;;;;;;-145.18;100.00;46566.63;4992765;28;20108;-63
2022/03/30 02:46:39;;;;;;;46.63;18.23;;;;;;;-145.18;100.00;46566.63;5010812;28;20034;-63
2022/03/30 02:49:04;;;;;;;42.87;18.93;;;;;;;-145.18;100.00;46570.53;5009887;28;20045;-63
2022/03/30 02:51:30;;;;;;;45.07;18.93;;;;;;;-145.18;100.00;46574.44;5010730;28;20422;-63
2022/03/30 02:53:56;;;;;;;47.07;18.10;;;;;;;-145.18;100.00;46570.53;5009926;28;20034;-63
2022/03/30 02:56:21;;;;;;;45.53;19.03;;;;;;;-145.18;100.00;46574.44;5010532;28;20033;-62
2022/03/30 02:58:47;;;;;;;46.90;18.67;;;;;;;-145.18;100.00;46580.31;5009786;28;20380;-63
2022/03/30 03:01:12;;;;;;;40.40;18.47;;;;;;;-145.18;100.00;46580.31;5010348;28;20038;-63
2022/03/30 03:08:04;;;;;;;37.13;17.77;;;;;;;-145.18;100.00;46619.38;5007580;28;20121;-63
2022/03/30 03:11:54;;;;;;;51.10;17.67;;;;;;;-145.18;100.00;46635.00;5010387;28;20106;-64
2022/03/30 03:15:15;;;;;;;;;;;;;;;-145.18;100.00;46654.53;5011192;28;20346;-63
2022/03/30 03:19:10;;;;;;;43.03;18.37;;;;;;;-145.18;100.00;46636.94;5009688;28;20365;-63
2022/03/30 03:23:09;;;;;;;46.27;19.83;;;;;;;-145.18;100.00;46635.00;5010267;28;20279;-65
2022/03/30 03:27:01;;;;;;;40.07;18.47;;;;;;;-145.18;100.00;46644.78;5010299;28;20263;-62
2022/03/30 03:30:21;;;;;;;;;;;;;;;-145.18;100.00;46650.63;5010890;28;20319;-65
2022/03/30 03:34:16;;;;;;;39.73;17.53;;;;;;;-145.18;100.00;46656.50;5009703;28;19920;-65
2022/03/30 03:38:08;;;;;;;37.80;17.40;;;;;;;-145.18;100.00;46658.44;5011395;28;20306;-65
2022/03/30 03:42:04;;;;;;;35.37;16.33;;;;;;;-145.18;100.00;46654.53;5009755;28;21023;-65
2022/03/30 03:49:35;;;;;;;43.58;18.75;;;;;;;-145.18;100.00;46660.41;5013253;28;20049;-65
2022/03/30 03:57:05;;;;;;;56.58;19.13;;;;;;;-145.18;100.00;46672.13;5013325;28;20077;-64
2022/03/30 07:30:36;;;;;;;53.87;16.73;;;;;;;-145.18;100.00;46552.97;5010524;28;20286;-64
2022/03/30 07:34:24;;;;;;;46.33;15.17;;;;;;;-145.18;100.00;46545.16;4991200;28;20288;-65
2022/03/30 07:38:12;;;;;;;34.53;14.97;;;;;;;-145.18;100.00;46564.69;4994070;28;20287;-64
2022/03/30 07:45:36;;;;;;;36.03;15.77;;;;;;;-145.18;100.00;46576.41;4993615;28;20286;-64
2022/03/30 07:49:25;;;;;;;37.77;15.53;;;;;;;-145.18;100.00;46574.44;4993521;28;20347;-65
2022/03/30 07:53:12;;;;;;;40.43;16.47;;;;;;;-145.18;100.00;46574.44;4993242;28;20291;-65
2022/03/30 07:56:59;;;;;;;39.30;15.83;;;;;;;-145.18;100.00;46570.53;4992943;28;20268;-65
2022/03/30 08:04:18;;;;;;;38.90;14.70;;;;;;;-145.18;100.00;46580.31;4993333;28;20271;-65
2022/03/30 08:08:13;;;;;;;37.70;16.53;;;;;;;-145.18;100.00;46574.44;4991629;28;20338;-65
2022/03/30 08:12:08;;;;;;;34.07;13.73;;;;;;;-145.18;100.00;46566.63;4993762;28;20784;-65
2022/03/30 08:19:34;;;;;;;37.40;14.90;;;;;;;-145.18;100.00;46572.50;4993047;28;20278;-64
2022/03/30 08:23:28;;;;;;;34.93;15.30;;;;;;;-145.18;100.00;46566.63;4993361;28;20260;-64
2022/03/30 08:27:22;;;;;;;37.23;15.80;;;;;;;-145.18;100.00;46566.63;4990806;28;20252;-65
